sensor_id;sensor_type;location;lat;lon;timestamp;pressure;altitude;pressure_sealevel;temperature;humidity
24302;BME280;12421;49.732;20.078;2023-03-03T00:03:58;97067.34;;;-4.38;78.06
24302;BME280;12421;49.732;20.078;2023-03-03T00:14:23;97065.08;;;-4.32;78.06
24302;BME280;12421;49.732;20.078;2023-03-03T00:24:36;97057.77;;;-4.45;77.73
24302;BME280;12421;49.732;20.078;2023-03-03T00:34:41;97052.50;;;-4.55;77.94
24302;BME280;12421;49.732;20.078;2023-03-03T00:44:47;97051.62;;;-4.59;77.97
24302;BME280;12421;49.732;20.078;2023-03-03T00:54:51;97049.52;;;-4.70;77.88
24302;BME280;12421;49.732;20.078;2023-03-03T01:04:54;97045.64;;;-4.72;77.74
24302;BME280;12421;49.732;20.078;2023-03-03T01:14:58;97034.63;;;-4.80;77.84
24302;BME280;12421;49.732;20.078;2023-03-03T01:25:02;97029.32;;;-4.84;77.85
24302;BME280;12421;49.732;20.078;2023-03-03T01:35:08;97021.24;;;-5.01;77.98
24302;BME280;12421;49.732;20.078;2023-03-03T01:45:26;97015.98;;;-5.17;78.16
24302;BME280;12421;49.732;20.078;2023-03-03T01:55:34;97012.27;;;-5.23;78.53
24302;BME280;12421;49.732;20.078;2023-03-03T02:05:40;97011.95;;;-5.16;78.68
24302;BME280;12421;49.732;20.078;2023-03-03T02:15:44;97013.80;;;-5.26;78.34
24302;BME280;12421;49.732;20.078;2023-03-03T02:36:01;97013.61;;;-5.40;78.59
24302;BME280;12421;49.732;20.078;2023-03-03T02:46:04;97007.88;;;-5.48;78.28
24302;BME280;12421;49.732;20.078;2023-03-03T02:56:09;97004.83;;;-5.58;78.48
24302;BME280;12421;49.732;20.078;2023-03-03T03:06:12;96999.88;;;-5.51;78.37
24302;BME280;12421;49.732;20.078;2023-03-03T03:16:17;96994.30;;;-5.63;78.28
24302;BME280;12421;49.732;20.078;2023-03-03T03:26:21;96990.13;;;-5.78;78.42
24302;BME280;12421;49.732;20.078;2023-03-03T03:36:25;96994.09;;;-5.78;78.80
24302;BME280;12421;49.732;20.078;2023-03-03T03:46:30;96989.20;;;-5.79;78.03
24302;BME280;12421;49.732;20.078;2023-03-03T03:56:34;96984.63;;;-5.82;78.16
24302;BME280;12421;49.732;20.078;2023-03-03T04:06:37;96981.63;;;-5.94;78.26
24302;BME280;12421;49.732;20.078;2023-03-03T04:16:41;96978.92;;;-5.96;78.38
24302;BME280;12421;49.732;20.078;2023-03-03T04:26:44;96973.94;;;-5.81;79.08
24302;BME280;12421;49.732;20.078;2023-03-03T04:36:49;96972.44;;;-5.66;78.68
24302;BME280;12421;49.732;20.078;2023-03-03T04:46:52;96975.77;;;-5.68;77.94
24302;BME280;12421;49.732;20.078;2023-03-03T04:56:56;96973.44;;;-5.50;77.75
24302;BME280;12421;49.732;20.078;2023-03-03T05:06:59;96976.95;;;-5.68;77.15
24302;BME280;12421;49.732;20.078;2023-03-03T05:17:02;96981.55;;;-5.89;77.28
24302;BME280;12421;49.732;20.078;2023-03-03T05:27:06;96982.93;;;-6.05;77.70
24302;BME280;12421;49.732;20.078;2023-03-03T05:37:09;96992.84;;;-5.88;78.13
24302;BME280;12421;49.732;20.078;2023-03-03T05:47:14;96993.66;;;-5.76;77.85
24302;BME280;12421;49.732;20.078;2023-03-03T05:57:17;97005.80;;;-5.69;77.93
24302;BME280;12421;49.732;20.078;2023-03-03T06:07:20;97007.53;;;-5.69;78.02
24302;BME280;12421;49.732;20.078;2023-03-03T06:17:23;97012.98;;;-5.59;78.36
24302;BME280;12421;49.732;20.078;2023-03-03T06:27:27;97027.48;;;-5.36;78.52
24302;BME280;12421;49.732;20.078;2023-03-03T06:37:30;97035.55;;;-4.85;78.94
24302;BME280;12421;49.732;20.078;2023-03-03T06:47:35;97038.09;;;-3.90;79.46
24302;BME280;12421;49.732;20.078;2023-03-03T06:57:39;97047.06;;;-3.21;78.40
24302;BME280;12421;49.732;20.078;2023-03-03T07:07:43;97054.93;;;-2.81;78.05
24302;BME280;12421;49.732;20.078;2023-03-03T07:17:49;97064.29;;;-2.38;77.82
24302;BME280;12421;49.732;20.078;2023-03-03T07:27:58;97058.95;;;-2.00;78.05
24302;BME280;12421;49.732;20.078;2023-03-03T07:48:34;97038.30;;;-1.13;77.87
24302;BME280;12421;49.732;20.078;2023-03-03T07:58:39;97031.70;;;-0.45;77.79
24302;BME280;12421;49.732;20.078;2023-03-03T08:08:43;97016.19;;;0.21;77.24
24302;BME280;12421;49.732;20.078;2023-03-03T08:18:49;96986.91;;;0.58;76.30
24302;BME280;12421;49.732;20.078;2023-03-03T08:28:53;96966.42;;;0.91;75.82
24302;BME280;12421;49.732;20.078;2023-03-03T08:38:57;96973.20;;;1.26;75.65
24302;BME280;12421;49.732;20.078;2023-03-03T08:49:00;96979.85;;;1.78;75.28
24302;BME280;12421;49.732;20.078;2023-03-03T08:59:04;96968.94;;;2.31;74.81
24302;BME280;12421;49.732;20.078;2023-03-03T09:09:07;96983.52;;;3.10;74.74
24302;BME280;12421;49.732;20.078;2023-03-03T09:19:28;96983.58;;;4.29;73.64
24302;BME280;12421;49.732;20.078;2023-03-03T09:29:36;96966.33;;;4.90;71.21
24302;BME280;12421;49.732;20.078;2023-03-03T09:39:39;96989.41;;;5.02;69.71
24302;BME280;12421;49.732;20.078;2023-03-03T09:50:01;96993.42;;;4.88;67.88
24302;BME280;12421;49.732;20.078;2023-03-03T10:10:35;96975.39;;;5.60;66.90
24302;BME280;12421;49.732;20.078;2023-03-03T11:01:58;96967.39;;;6.00;63.09
24302;BME280;12421;49.732;20.078;2023-03-03T11:22:43;96986.05;;;6.52;61.71
24302;BME280;12421;49.732;20.078;2023-03-03T11:43:28;96973.39;;;6.35;61.94
24302;BME280;12421;49.732;20.078;2023-03-03T11:53:57;96962.96;;;6.40;61.66
24302;BME280;12421;49.732;20.078;2023-03-03T12:04:11;96972.69;;;6.33;61.54
24302;BME280;12421;49.732;20.078;2023-03-03T12:14:34;96972.11;;;6.26;61.30
24302;BME280;12421;49.732;20.078;2023-03-03T12:25:33;96966.24;;;6.36;61.66
24302;BME280;12421;49.732;20.078;2023-03-03T12:46:00;96952.29;;;6.05;61.99
24302;BME280;12421;49.732;20.078;2023-03-03T12:56:07;96949.22;;;5.92;62.07
24302;BME280;12421;49.732;20.078;2023-03-03T13:16:27;96954.14;;;5.59;62.91
24302;BME280;12421;49.732;20.078;2023-03-03T13:27:12;96946.23;;;5.32;62.49
24302;BME280;12421;49.732;20.078;2023-03-03T13:37:20;96935.17;;;5.05;62.57
24302;BME280;12421;49.732;20.078;2023-03-03T14:08:00;96930.02;;;4.66;63.45
24302;BME280;12421;49.732;20.078;2023-03-03T14:18:26;96934.09;;;4.57;63.91
24302;BME280;12421;49.732;20.078;2023-03-03T14:28:42;96930.40;;;4.27;64.15
24302;BME280;12421;49.732;20.078;2023-03-03T14:38:47;96918.09;;;4.03;63.95
24302;BME280;12421;49.732;20.078;2023-03-03T14:48:58;96925.25;;;3.71;64.29
24302;BME280;12421;49.732;20.078;2023-03-03T14:59:17;96925.22;;;3.37;65.20
24302;BME280;12421;49.732;20.078;2023-03-03T15:09:40;96933.98;;;3.12;65.78
24302;BME280;12421;49.732;20.078;2023-03-03T15:20:01;96941.75;;;2.73;66.28
24302;BME280;12421;49.732;20.078;2023-03-03T15:30:29;96942.90;;;2.36;67.01
24302;BME280;12421;49.732;20.078;2023-03-03T16:11:48;96967.85;;;1.07;70.52
24302;BME280;12421;49.732;20.078;2023-03-03T16:42:43;96997.00;;;0.73;72.63
24302;BME280;12421;49.732;20.078;2023-03-03T16:53:02;97006.55;;;0.93;72.45
24302;BME280;12421;49.732;20.078;2023-03-03T17:03:21;97005.98;;;0.91;72.31
24302;BME280;12421;49.732;20.078;2023-03-03T17:24:21;97022.80;;;0.69;72.55
24302;BME280;12421;49.732;20.078;2023-03-03T17:34:58;97025.88;;;0.74;72.31
24302;BME280;12421;49.732;20.078;2023-03-03T17:45:13;97022.95;;;0.74;72.41
24302;BME280;12421;49.732;20.078;2023-03-03T18:16:37;97032.70;;;0.41;73.19
24302;BME280;12421;49.732;20.078;2023-03-03T18:26:46;97025.90;;;0.33;73.46
24302;BME280;12421;49.732;20.078;2023-03-03T18:47:06;97036.50;;;0.30;73.44
24302;BME280;12421;49.732;20.078;2023-03-03T18:57:14;97034.75;;;0.30;73.80
24302;BME280;12421;49.732;20.078;2023-03-03T19:07:19;97040.15;;;0.31;73.94
24302;BME280;12421;49.732;20.078;2023-03-03T19:48:23;96998.52;;;0.41;73.66
24302;BME280;12421;49.732;20.078;2023-03-03T19:59:01;96987.52;;;0.44;73.49
24302;BME280;12421;49.732;20.078;2023-03-03T20:09:18;96989.05;;;0.43;73.44
24302;BME280;12421;49.732;20.078;2023-03-03T20:51:04;96980.66;;;0.39;73.65
24302;BME280;12421;49.732;20.078;2023-03-03T21:01:15;96973.98;;;0.35;73.62
24302;BME280;12421;49.732;20.078;2023-03-03T21:11:39;96970.47;;;0.27;73.27
24302;BME280;12421;49.732;20.078;2023-03-03T21:21:43;96963.30;;;0.24;73.43
24302;BME280;12421;49.732;20.078;2023-03-03T21:32:04;96964.97;;;0.28;73.51
24302;BME280;12421;49.732;20.078;2023-03-03T21:42:09;96962.10;;;0.25;73.36
24302;BME280;12421;49.732;20.078;2023-03-03T21:52:17;96970.99;;;0.10;73.97
24302;BME280;12421;49.732;20.078;2023-03-03T22:02:20;96958.85;;;0.13;73.92
24302;BME280;12421;49.732;20.078;2023-03-03T22:12:24;96939.64;;;0.12;73.94
24302;BME280;12421;49.732;20.078;2023-03-03T22:22:27;96931.23;;;0.02;73.89
24302;BME280;12421;49.732;20.078;2023-03-03T22:32:30;96922.01;;;-0.13;73.92
24302;BME280;12421;49.732;20.078;2023-03-03T22:42:33;96920.48;;;-0.17;74.31
24302;BME280;12421;49.732;20.078;2023-03-03T22:52:36;96918.11;;;-0.21;74.29
24302;BME280;12421;49.732;20.078;2023-03-03T23:02:40;96905.52;;;-0.44;74.12
24302;BME280;12421;49.732;20.078;2023-03-03T23:12:44;96898.34;;;-0.75;74.20
24302;BME280;12421;49.732;20.078;2023-03-03T23:22:47;96881.98;;;-1.01;74.91
24302;BME280;12421;49.732;20.078;2023-03-03T23:32:50;96856.94;;;-1.18;75.09
24302;BME280;12421;49.732;20.078;2023-03-03T23:42:55;96847.98;;;-1.44;75.26
24302;BME280;12421;49.732;20.078;2023-03-03T23:52:58;96843.45;;;-1.61;75.74
